Kezdőlap
METAR-TAF:

METAR-TAF

Repülőterek :

Frenchville, Maine, Amerikai Egyesült Államok

földrajzi szélesség: 47-17-06N, földrajzi hosszúság: 068-18-26W, magasság: 301 m

Jelenlegi meteorológiai megfigyelések

A jelentés 32 perccel ezelõtt készült, 21:53 UTC
Észak-északnyugati szél 7 kt
Hőmérséklet -2°C
Páratartalom 86%
Légköri nyomás 1014 hPa
Látótávolság: 16.1 km
Derült ég

METAR: KFVE 202153Z AUTO 34007KT 10SM CLR M02/M04 A2995 RMK AO2 SLP155 T10171039

Idő: 17:25 (22:25 UTC)

Előrejelzés

A jelentés 4 órával és 55 perccel ezelõtt készült, 17:30 UTC
Az előrejelzés 20-én 18 óra UTC és 21-én 18 óra UTC között érvényes
Északi szél 7 kt
Látótávolság: 10 km
Kevés felhő 5000 lábon
Szakadozott felhőzet 15000 lábon
21-én 0700 órától UTC szerint
Észak-északnyugati szél 6 kt
Látótávolság: 10 km
Szakadozott felhőzet 1500 lábon

TAF: KFVE 201730Z 2018/2118 36007KT P6SM FEW050 BKN150 FM210700 33006KT P6SM BKN015

Meteorológiai megfigyelések és előrejelzések több, mint 4000 repülőtéren (METAR és TAF jelentéseket).

A térképen piros és sárga pontok jelzik az elérhető meteorológiai állomásokat.

Mozgassa az egeret a pont fölött, hogy megjelenjen az állomás neve.

Azután kattintson az időjárási megfigyelések és előrejelzések megtekintéséhez.

A térkép megváltoztatása: kattintson a fekete keresztel jelölt zöld gombra ráközelítéshez, a vonallal jelölt zöld gombra távolításhoz, vagy a zöld nyilakra a szomszédos térképek eléréséhez.


METAR-TAF: